createdAt,value
2018-11-03T00:02:28.424Z,41.50
2018-11-03T00:04:57.190Z,43.53
2018-11-03T00:07:26.190Z,49.77
2018-11-03T00:09:55.012Z,46.90
2018-11-03T00:12:23.799Z,45.00
2018-11-03T00:14:52.590Z,46.00
2018-11-03T00:17:21.372Z,46.13
2018-11-03T00:19:50.106Z,48.70
2018-11-03T00:22:18.947Z,43.83
2018-11-03T00:24:47.753Z,45.00
2018-11-03T00:27:16.545Z,45.00
2018-11-03T00:29:45.544Z,44.40
2018-11-03T00:32:14.398Z,42.90
2018-11-03T00:34:43.173Z,49.90
2018-11-03T00:37:12.376Z,44.43
2018-11-03T00:39:41.318Z,45.23
2018-11-03T00:42:10.788Z,45.70
2018-11-03T00:44:39.579Z,50.97
2018-11-03T00:47:08.395Z,47.07
2018-11-03T00:49:37.188Z,43.00
2018-11-03T00:52:06.201Z,49.23
2018-11-03T00:54:34.958Z,42.33
2018-11-03T00:57:03.746Z,51.00
2018-11-03T00:59:32.515Z,49.90
2018-11-03T01:02:01.286Z,45.90
2018-11-03T01:04:30.542Z,43.30
2018-11-03T01:06:59.357Z,46.53
2018-11-03T01:09:28.157Z,48.50
2018-11-03T01:11:57.129Z,43.53
2018-11-03T01:14:26.104Z,52.03
2018-11-03T01:16:54.917Z,46.57
2018-11-03T01:19:23.704Z,46.97
2018-11-03T01:21:52.452Z,47.23
2018-11-03T01:24:21.216Z,41.00
2018-11-03T01:26:50.482Z,42.73
2018-11-03T01:29:19.235Z,42.73
2018-11-03T01:31:48.029Z,40.67
2018-11-03T01:34:16.827Z,42.27
2018-11-03T01:36:45.658Z,42.00
2018-11-03T01:39:14.431Z,43.20
2018-11-03T01:41:43.338Z,43.97
2018-11-03T01:44:12.106Z,40.40
2018-11-03T01:46:40.900Z,42.97
2018-11-03T01:49:11.432Z,41.40
2018-11-03T01:51:40.199Z,41.53
2018-11-03T01:54:09.210Z,42.93
2018-11-03T01:56:37.978Z,49.67
2018-11-03T01:59:06.809Z,44.57
2018-11-03T02:01:35.579Z,42.83
2018-11-03T02:04:04.417Z,44.67
2018-11-03T02:06:33.187Z,45.57
2018-11-03T02:09:01.968Z,49.03
2018-11-03T02:11:30.912Z,45.87
2018-11-03T02:13:59.677Z,45.80
2018-11-03T02:16:28.420Z,43.93
2018-11-03T02:18:57.273Z,43.93
2018-11-03T02:21:26.048Z,51.03
2018-11-03T02:23:54.883Z,43.07
2018-11-03T02:26:23.906Z,47.83
2018-11-03T02:28:52.738Z,46.47
2018-11-03T02:31:21.554Z,45.40
2018-11-03T02:33:50.319Z,45.20
2018-11-03T02:36:19.154Z,47.73
2018-11-03T02:38:47.918Z,48.00
2018-11-03T02:41:16.771Z,43.97
2018-11-03T02:43:45.697Z,50.73
2018-11-03T02:46:14.657Z,48.90
2018-11-03T02:48:43.430Z,45.70
2018-11-03T02:51:12.199Z,47.93
2018-11-03T02:53:41.619Z,45.07
2018-11-03T02:56:10.739Z,43.27
2018-11-03T02:58:39.493Z,45.27
2018-11-03T03:01:08.305Z,47.17
2018-11-03T03:03:37.095Z,45.30
2018-11-03T03:06:05.924Z,48.40
2018-11-03T03:08:34.700Z,44.27
2018-11-03T03:11:03.506Z,50.10
2018-11-03T03:13:32.273Z,48.37
2018-11-03T03:16:01.084Z,48.67
2018-11-03T03:18:30.054Z,50.33
2018-11-03T03:20:59.167Z,50.83
2018-11-03T03:23:27.907Z,52.87
2018-11-03T03:25:56.739Z,51.43
2018-11-03T03:28:25.513Z,49.40
2018-11-03T03:30:54.318Z,50.37
2018-11-03T03:33:23.077Z,50.23
2018-11-03T03:35:52.638Z,47.07
2018-11-03T03:38:21.431Z,48.77
2018-11-03T03:40:50.354Z,48.40
2018-11-03T03:43:19.243Z,49.37
2018-11-03T03:45:48.033Z,52.53
2018-11-03T03:48:16.801Z,52.83
2018-11-03T03:50:45.592Z,52.70
2018-11-03T03:53:14.382Z,49.43
2018-11-03T03:55:43.237Z,54.87
2018-11-03T03:58:12.333Z,55.37
2018-11-03T04:00:41.113Z,54.90
2018-11-03T04:03:10.011Z,49.97
2018-11-03T04:05:39.245Z,42.57
2018-11-03T04:08:08.043Z,40.20
2018-11-03T04:10:36.851Z,36.47
2018-11-03T04:13:06.022Z,36.37
2018-11-03T04:15:34.792Z,40.53
2018-11-03T04:18:03.565Z,36.53
2018-11-03T04:20:32.662Z,37.97
2018-11-03T04:23:01.639Z,34.47
2018-11-03T04:25:29.346Z,33.63
2018-11-03T04:27:58.160Z,38.33
2018-11-03T04:30:26.990Z,38.27
2018-11-03T04:32:55.754Z,37.07
2018-11-03T04:35:24.551Z,36.80
2018-11-03T04:37:53.363Z,36.70
2018-11-03T04:40:22.227Z,35.07
2018-11-03T04:42:50.974Z,36.77
2018-11-03T04:45:20.046Z,36.17
2018-11-03T04:47:48.924Z,36.80
2018-11-03T04:50:17.727Z,34.97
2018-11-03T04:52:46.512Z,35.80
2018-11-03T04:55:15.335Z,36.00
2018-11-03T04:57:44.250Z,34.20
2018-11-03T05:00:13.178Z,35.43
2018-11-03T05:02:41.968Z,35.27
2018-11-03T05:05:10.742Z,40.30
2018-11-03T05:07:39.510Z,36.00
2018-11-03T05:10:09.131Z,37.87
2018-11-03T05:12:38.568Z,37.73
2018-11-03T05:15:07.499Z,35.13
2018-11-03T05:17:36.787Z,39.23
2018-11-03T05:20:05.615Z,38.33
2018-11-03T05:22:34.651Z,36.77
2018-11-03T05:25:03.531Z,37.87
2018-11-03T05:27:32.690Z,44.63
2018-11-03T05:30:01.506Z,34.70
2018-11-03T05:32:30.360Z,41.10
2018-11-03T05:34:59.555Z,37.43
2018-11-03T05:37:28.539Z,34.00
2018-11-03T05:39:57.338Z,40.07
2018-11-03T05:42:26.330Z,37.77
2018-11-03T05:44:55.135Z,37.37
2018-11-03T05:47:24.366Z,35.67
2018-11-03T05:49:53.162Z,41.23
2018-11-03T05:52:22.262Z,39.03
2018-11-03T05:54:51.048Z,40.90
2018-11-03T05:57:19.810Z,48.97
2018-11-03T05:59:48.591Z,40.17
2018-11-03T06:02:17.353Z,41.33
2018-11-03T06:04:46.137Z,40.60
2018-11-03T06:07:14.939Z,41.23
2018-11-03T06:09:43.686Z,43.87
2018-11-03T06:12:12.458Z,46.40
2018-11-03T06:14:41.282Z,37.67
2018-11-03T06:17:10.094Z,48.57
2018-11-03T06:19:39.126Z,37.17
2018-11-03T06:22:07.904Z,41.17
2018-11-03T06:24:36.860Z,48.83
2018-11-03T06:27:05.676Z,52.60
2018-11-03T06:29:34.547Z,51.43
2018-11-03T06:32:03.476Z,54.73
2018-11-03T06:34:32.271Z,44.27
2018-11-03T06:37:01.121Z,48.10
2018-11-03T06:39:30.027Z,49.67
2018-11-03T06:41:58.834Z,57.43
2018-11-03T06:44:27.977Z,49.53
2018-11-03T06:46:56.791Z,51.20
2018-11-03T06:49:25.575Z,55.03
2018-11-03T06:51:54.464Z,46.00
2018-11-03T06:54:23.297Z,48.57
2018-11-03T06:56:52.093Z,49.20
2018-11-03T06:59:20.943Z,49.87
2018-11-03T07:01:51.231Z,52.17
2018-11-03T07:04:20.213Z,47.63
2018-11-03T07:06:49.207Z,50.87
2018-11-03T07:09:18.033Z,48.47
2018-11-03T07:11:47.161Z,51.27
2018-11-03T07:14:16.067Z,58.43
2018-11-03T07:16:45.068Z,50.30
2018-11-03T07:19:13.865Z,47.47
2018-11-03T07:21:42.687Z,55.53
2018-11-03T07:24:11.670Z,50.90
2018-11-03T07:26:40.535Z,51.93
2018-11-03T07:29:09.354Z,49.57
2018-11-03T07:31:38.127Z,44.43
2018-11-03T07:34:07.103Z,45.07
2018-11-03T07:36:35.898Z,46.10
2018-11-03T07:39:06.299Z,42.57
2018-11-03T07:41:35.178Z,43.03
2018-11-03T07:44:05.234Z,42.30
2018-11-03T07:46:34.092Z,42.03
2018-11-03T07:49:03.038Z,43.10
2018-11-03T07:51:32.012Z,41.47
2018-11-03T07:54:00.775Z,38.33
2018-11-03T07:56:29.797Z,45.57
2018-11-03T07:58:58.575Z,42.03
2018-11-03T08:01:27.405Z,43.40
2018-11-03T08:03:56.326Z,42.27
2018-11-03T08:06:25.147Z,45.67
2018-11-03T08:08:53.898Z,50.07
2018-11-03T08:11:22.870Z,45.37
2018-11-03T08:13:51.638Z,48.53
2018-11-03T08:16:20.487Z,50.10
2018-11-03T08:18:49.320Z,49.20
2018-11-03T08:21:18.102Z,50.83
2018-11-03T08:23:46.952Z,53.20
2018-11-03T08:26:15.897Z,49.23
2018-11-03T08:28:44.907Z,49.20
2018-11-03T08:31:14.072Z,46.37
2018-11-03T08:33:42.885Z,46.67
2018-11-03T08:36:11.650Z,49.70
2018-11-03T08:38:40.383Z,44.03
2018-11-03T08:41:09.487Z,45.83
2018-11-03T08:43:40.675Z,40.03
2018-11-03T08:46:10.150Z,43.37
2018-11-03T08:48:39.447Z,45.07
2018-11-03T08:51:08.474Z,42.03
2018-11-03T08:53:38.611Z,40.03
2018-11-03T08:56:07.424Z,41.23
2018-11-03T08:58:36.198Z,38.50
2018-11-03T09:01:05.251Z,37.10
2018-11-03T09:03:34.022Z,38.13
2018-11-03T09:06:03.799Z,36.13
2018-11-03T09:08:32.591Z,35.53
2018-11-03T09:11:01.351Z,37.07
2018-11-03T09:13:30.110Z,34.37
2018-11-03T09:15:58.885Z,29.73
2018-11-03T09:18:27.914Z,33.70
2018-11-03T09:20:56.894Z,35.07
2018-11-03T09:23:25.662Z,29.27
2018-11-03T09:25:54.621Z,29.50
2018-11-03T09:28:23.740Z,30.60
2018-11-03T09:30:52.498Z,28.37
2018-11-03T09:33:21.282Z,29.07
2018-11-03T09:35:50.063Z,30.67
2018-11-03T09:38:20.736Z,30.53
2018-11-03T09:40:49.703Z,31.13
2018-11-03T09:43:18.528Z,29.80
2018-11-03T09:45:47.510Z,31.57
2018-11-03T09:48:16.298Z,28.27
2018-11-03T09:50:45.418Z,27.30
2018-11-03T09:53:14.202Z,31.80
2018-11-03T09:55:42.958Z,27.70
2018-11-03T09:58:13.659Z,25.97
2018-11-03T10:00:42.482Z,24.80
2018-11-03T10:03:11.476Z,25.27
2018-11-03T10:05:40.427Z,25.93
2018-11-03T10:08:09.194Z,26.77
2018-11-03T10:10:38.016Z,25.40
2018-11-03T10:13:06.830Z,26.17
2018-11-03T10:15:35.687Z,31.37
2018-11-03T10:18:04.719Z,31.17
2018-11-03T10:20:33.523Z,25.83
2018-11-03T10:23:02.439Z,25.13
2018-11-03T10:25:31.419Z,25.03
2018-11-03T10:28:00.282Z,27.43
2018-11-03T10:30:29.071Z,28.10
2018-11-03T10:32:58.169Z,21.30
2018-11-03T10:35:27.096Z,29.20
2018-11-03T10:37:57.484Z,27.80
2018-11-03T10:40:26.331Z,25.73
2018-11-03T10:42:55.324Z,21.80
2018-11-03T10:45:24.115Z,18.93
2018-11-03T10:47:53.235Z,17.97
2018-11-03T10:50:22.059Z,17.93
2018-11-03T10:52:50.989Z,20.03
2018-11-03T10:55:20.313Z,20.97
2018-11-03T10:57:49.488Z,17.50
2018-11-03T11:00:24.686Z,22.70
2018-11-03T11:02:59.271Z,20.40
2018-11-03T11:05:34.094Z,19.03
2018-11-03T11:08:07.991Z,18.03
2018-11-03T11:10:41.955Z,16.90
2018-11-03T11:13:18.371Z,19.03
2018-11-03T11:15:47.166Z,21.13
2018-11-03T11:18:16.197Z,17.80
2018-11-03T11:20:45.181Z,20.47
2018-11-03T11:23:13.964Z,17.97
2018-11-03T11:25:42.945Z,16.13
2018-11-03T11:28:11.878Z,15.83
2018-11-03T11:30:42.269Z,15.00
2018-11-03T11:33:12.742Z,14.93
2018-11-03T11:35:41.941Z,14.13
2018-11-03T11:38:11.534Z,15.57
2018-11-03T11:40:40.868Z,18.53
2018-11-03T11:43:10.775Z,20.60
2018-11-03T11:45:40.266Z,16.83
2018-11-03T11:48:09.383Z,16.73
2018-11-03T11:50:38.390Z,15.43
2018-11-03T11:53:07.194Z,15.23
2018-11-03T11:55:35.988Z,17.93
2018-11-03T11:58:05.587Z,11.67
2018-11-03T12:00:34.558Z,13.20
2018-11-03T12:03:03.525Z,14.63
2018-11-03T12:05:32.304Z,13.17
2018-11-03T12:08:01.263Z,11.77
2018-11-03T12:10:30.193Z,10.97
2018-11-03T12:12:58.989Z,13.10
2018-11-03T12:15:27.794Z,8.53
2018-11-03T12:17:56.569Z,11.43
2018-11-03T12:20:25.432Z,8.67
2018-11-03T12:22:54.396Z,8.33
2018-11-03T12:25:23.350Z,9.70
2018-11-03T12:27:52.305Z,5.40
2018-11-03T12:30:21.161Z,6.20
2018-11-03T12:32:49.922Z,11.80
2018-11-03T12:35:18.710Z,6.63
2018-11-03T12:37:47.518Z,7.07
2018-11-03T12:40:16.790Z,6.40
2018-11-03T12:42:45.577Z,7.67
2018-11-03T12:45:13.498Z,4.50
2018-11-03T12:47:42.647Z,9.87
2018-11-03T12:50:13.226Z,5.60
2018-11-03T12:52:42.246Z,9.43
2018-11-03T12:55:11.420Z,7.43
2018-11-03T12:57:41.181Z,10.37
2018-11-03T13:00:13.444Z,12.93
2018-11-03T13:02:43.222Z,9.53
2018-11-03T13:05:12.255Z,10.03
2018-11-03T13:07:42.583Z,12.90
2018-11-03T13:10:12.267Z,7.67
2018-11-03T13:12:41.770Z,11.60
2018-11-03T13:15:11.806Z,8.13
2018-11-03T13:17:40.698Z,10.93
2018-11-03T13:20:11.443Z,8.30
2018-11-03T13:22:40.426Z,8.90
2018-11-03T13:25:10.342Z,10.73
2018-11-03T13:27:39.747Z,9.67
2018-11-03T13:30:10.794Z,9.10
2018-11-03T13:32:39.632Z,10.50
2018-11-03T13:35:09.191Z,11.97
2018-11-03T13:37:38.374Z,7.33
2018-11-03T13:40:08.118Z,10.93
2018-11-03T13:42:36.876Z,5.53
2018-11-03T13:45:06.451Z,11.03
2018-11-03T13:47:35.626Z,9.27
2018-11-03T13:50:08.757Z,10.03
2018-11-03T13:52:37.520Z,11.97
2018-11-03T13:55:07.500Z,12.17
2018-11-03T13:57:36.267Z,11.93
2018-11-03T14:00:11.042Z,10.13
2018-11-03T14:02:40.208Z,9.67
2018-11-03T14:05:09.593Z,9.60
2018-11-03T14:07:38.597Z,7.70
2018-11-03T14:10:09.144Z,9.93
2018-11-03T14:12:38.159Z,8.10
2018-11-03T14:15:08.637Z,12.10
2018-11-03T14:17:37.500Z,11.87
2018-11-03T14:20:07.342Z,13.20
2018-11-03T14:22:36.154Z,9.27
2018-11-03T14:25:05.410Z,10.97
2018-11-03T14:27:34.269Z,11.90
2018-11-03T14:30:06.695Z,11.07
2018-11-03T14:32:35.510Z,11.23
2018-11-03T14:35:04.768Z,18.73
2018-11-03T14:37:33.514Z,11.23
2018-11-03T14:40:02.310Z,11.43
2018-11-03T14:42:31.067Z,12.43
2018-11-03T14:44:59.841Z,12.60
2018-11-03T14:47:28.862Z,14.07
2018-11-03T14:49:57.822Z,15.27
2018-11-03T14:52:26.654Z,16.03
2018-11-03T14:54:55.437Z,14.57
2018-11-03T14:57:24.259Z,18.10
2018-11-03T14:59:53.035Z,18.67
2018-11-03T15:02:21.848Z,18.60
2018-11-03T15:04:51.107Z,16.57
2018-11-03T15:07:19.895Z,16.70
2018-11-03T15:09:48.766Z,16.30
2018-11-03T15:12:17.595Z,19.80
2018-11-03T15:14:46.480Z,21.27
2018-11-03T15:17:15.560Z,17.57
2018-11-03T15:19:44.389Z,22.83
2018-11-03T15:22:13.254Z,16.83
2018-11-03T15:24:42.216Z,19.10
2018-11-03T15:27:11.094Z,18.93
2018-11-03T15:29:39.900Z,16.97
2018-11-03T15:32:08.717Z,16.53
2018-11-03T15:34:37.788Z,16.07
2018-11-03T15:37:06.784Z,18.57
2018-11-03T15:39:35.602Z,19.63
2018-11-03T15:42:05.064Z,17.07
2018-11-03T15:44:33.849Z,19.13
2018-11-03T15:47:02.802Z,21.27
2018-11-03T15:49:31.603Z,23.73
2018-11-03T15:52:00.443Z,18.77
2018-11-03T15:54:29.337Z,20.90
2018-11-03T15:56:58.092Z,22.00
2018-11-03T15:59:26.900Z,21.87
2018-11-03T16:01:55.659Z,22.30
2018-11-03T16:04:24.511Z,19.13
2018-11-03T16:06:53.323Z,19.10
2018-11-03T16:09:22.455Z,19.57
2018-11-03T16:11:51.737Z,20.60
2018-11-03T16:14:20.729Z,19.93
2018-11-03T16:16:49.499Z,16.13
2018-11-03T16:19:18.291Z,18.50
2018-11-03T16:21:47.107Z,20.40
2018-11-03T16:24:15.927Z,23.40
2018-11-03T16:26:44.734Z,26.27
2018-11-03T16:29:13.600Z,22.37
2018-11-03T16:31:43.294Z,22.17
2018-11-03T16:34:17.712Z,23.00
2018-11-03T16:36:47.983Z,29.77
2018-11-03T16:39:16.867Z,28.70
2018-11-03T16:41:46.208Z,26.60
2018-11-03T16:44:15.152Z,28.03
2018-11-03T16:46:43.940Z,26.17
2018-11-03T16:49:14.621Z,27.07
2018-11-03T16:51:43.420Z,27.17
2018-11-03T16:54:12.208Z,28.93
2018-11-03T16:56:41.619Z,24.77
2018-11-03T16:59:10.431Z,27.80
2018-11-03T17:01:39.223Z,29.33
2018-11-03T17:04:08.020Z,28.23
2018-11-03T17:06:36.948Z,24.70
2018-11-03T17:09:07.622Z,26.20
2018-11-03T17:11:36.388Z,30.00
2018-11-03T17:14:05.624Z,26.67
2018-11-03T17:16:34.398Z,28.33
2018-11-03T17:19:03.160Z,27.13
2018-11-03T17:21:31.965Z,28.43
2018-11-03T17:24:06.602Z,28.77
2018-11-03T17:26:35.611Z,27.10
2018-11-03T17:29:04.918Z,30.07
2018-11-03T17:31:33.666Z,25.00
2018-11-03T17:34:02.452Z,29.80
2018-11-03T17:36:31.601Z,30.17
2018-11-03T17:39:00.588Z,34.10
2018-11-03T17:41:29.385Z,33.77
2018-11-03T17:43:58.160Z,32.07
2018-11-03T17:46:27.176Z,31.97
2018-11-03T17:48:56.355Z,37.27
2018-11-03T17:51:25.159Z,40.10
2018-11-03T17:53:53.956Z,35.90
2018-11-03T17:56:22.750Z,39.03
2018-11-03T17:58:51.555Z,40.83
2018-11-03T18:01:20.525Z,40.53
2018-11-03T18:03:49.803Z,42.63
2018-11-03T18:06:18.607Z,42.40
2018-11-03T18:08:47.576Z,41.37
2018-11-03T18:11:16.351Z,48.07
2018-11-03T18:13:45.474Z,51.70
2018-11-03T18:16:14.259Z,60.30
2018-11-03T18:18:43.031Z,57.77
2018-11-03T18:21:11.767Z,58.27
2018-11-03T18:23:41.121Z,58.13
2018-11-03T18:26:17.536Z,70.47
2018-11-03T18:28:52.940Z,59.33
2018-11-03T18:31:21.738Z,62.97
2018-11-03T18:33:50.583Z,64.53
2018-11-03T18:36:19.489Z,68.87
2018-11-03T18:38:48.264Z,61.83
2018-11-03T18:41:17.122Z,64.23
2018-11-03T18:43:45.909Z,69.87
2018-11-03T18:46:14.683Z,68.67
2018-11-03T18:48:43.487Z,67.53
2018-11-03T18:51:12.299Z,66.47
2018-11-03T18:53:41.092Z,65.27
2018-11-03T18:56:10.305Z,63.00
2018-11-03T18:58:39.400Z,64.40
2018-11-03T19:01:08.271Z,70.30
2018-11-03T19:03:37.059Z,65.20
2018-11-03T19:06:06.647Z,64.87
2018-11-03T19:08:35.994Z,67.70
2018-11-03T19:11:05.051Z,70.60
2018-11-03T19:13:33.864Z,70.57
2018-11-03T19:16:02.645Z,76.13
2018-11-03T19:18:31.395Z,69.30
2018-11-03T19:21:00.147Z,70.47
2018-11-03T19:23:29.060Z,70.33
2018-11-03T19:25:58.015Z,67.53
2018-11-03T19:28:26.824Z,71.23
2018-11-03T19:30:55.607Z,72.60
2018-11-03T19:33:24.416Z,73.03
2018-11-03T19:35:53.220Z,72.67
2018-11-03T19:38:22.348Z,69.70
2018-11-03T19:40:51.325Z,67.97
2018-11-03T19:43:20.220Z,67.63
2018-11-03T19:45:49.107Z,69.10
2018-11-03T19:48:17.975Z,70.60
2018-11-03T19:50:47.015Z,66.60
2018-11-03T19:53:15.809Z,67.60
2018-11-03T19:55:44.739Z,66.00
2018-11-03T19:58:13.638Z,72.97
2018-11-03T20:00:42.531Z,74.33
2018-11-03T20:03:11.403Z,70.03
2018-11-03T20:05:40.239Z,69.77
2018-11-03T20:08:09.056Z,68.60
2018-11-03T20:10:37.912Z,66.97
2018-11-03T20:13:06.858Z,66.07
2018-11-03T20:15:35.624Z,64.27
2018-11-03T20:18:04.507Z,66.80
2018-11-03T20:20:33.423Z,68.53
2018-11-03T20:23:02.263Z,73.53
2018-11-03T20:25:31.016Z,68.37
2018-11-03T20:27:59.799Z,70.93
2018-11-03T20:30:28.535Z,64.87
2018-11-03T20:32:57.339Z,62.03
2018-11-03T20:35:26.215Z,67.73
2018-11-03T20:37:55.107Z,70.97
2018-11-03T20:40:23.890Z,64.57
2018-11-03T20:42:52.670Z,60.37
2018-11-03T20:45:21.475Z,63.93
2018-11-03T20:47:50.294Z,60.53
2018-11-03T20:50:19.029Z,60.00
2018-11-03T20:52:47.794Z,58.10
2018-11-03T20:55:16.639Z,61.67
2018-11-03T20:57:45.427Z,57.60
2018-11-03T21:00:15.455Z,56.47
2018-11-03T21:02:44.900Z,63.27
2018-11-03T21:05:13.710Z,53.37
2018-11-03T21:07:43.343Z,53.50
2018-11-03T21:10:12.135Z,56.93
2018-11-03T21:12:41.326Z,57.27
2018-11-03T21:15:10.078Z,56.33
2018-11-03T21:17:38.862Z,63.30
2018-11-03T21:20:08.502Z,60.37
2018-11-03T21:22:37.314Z,66.30
2018-11-03T21:25:06.249Z,60.07
2018-11-03T21:27:35.050Z,70.00
2018-11-03T21:30:08.555Z,64.23
2018-11-03T21:32:37.553Z,59.30
2018-11-03T21:35:06.640Z,58.30
2018-11-03T21:37:35.457Z,58.40
2018-11-03T21:40:04.451Z,60.00
2018-11-03T21:42:33.318Z,58.07
2018-11-03T21:45:02.148Z,61.03
2018-11-03T21:47:30.929Z,59.30
2018-11-03T21:49:59.712Z,50.47
2018-11-03T21:52:28.552Z,54.60
2018-11-03T21:54:57.330Z,54.00
2018-11-03T21:57:26.122Z,52.40
2018-11-03T21:59:54.890Z,51.03
2018-11-03T22:02:23.734Z,47.97
2018-11-03T22:04:52.513Z,47.27
2018-11-03T22:07:21.322Z,56.17
2018-11-03T22:09:50.191Z,52.07
2018-11-03T22:12:19.003Z,55.60
2018-11-03T22:14:47.779Z,54.53
2018-11-03T22:17:16.662Z,56.90
2018-11-03T22:19:45.532Z,54.43
2018-11-03T22:22:14.296Z,52.23
2018-11-03T22:24:43.083Z,51.73
2018-11-03T22:27:11.839Z,49.60
2018-11-03T22:29:40.640Z,51.30
2018-11-03T22:32:09.478Z,47.77
2018-11-03T22:34:38.274Z,52.60
2018-11-03T22:37:07.058Z,48.03
2018-11-03T22:39:35.821Z,52.20
2018-11-03T22:42:04.922Z,54.57
2018-11-03T22:44:34.022Z,49.60
2018-11-03T22:47:03.199Z,45.60
2018-11-03T22:49:32.021Z,49.33
2018-11-03T22:52:00.911Z,46.97
2018-11-03T22:54:29.883Z,46.17
2018-11-03T22:56:58.726Z,45.33
2018-11-03T22:59:27.764Z,44.37
2018-11-03T23:01:56.856Z,40.70
2018-11-03T23:04:25.828Z,43.37
2018-11-03T23:06:54.725Z,43.90
2018-11-03T23:09:23.555Z,40.43
2018-11-03T23:11:52.487Z,43.70
2018-11-03T23:14:27.751Z,38.10
2018-11-03T23:16:56.919Z,35.10
2018-11-03T23:19:25.783Z,37.70
2018-11-03T23:21:54.818Z,35.43
2018-11-03T23:24:23.753Z,38.50
2018-11-03T23:26:52.535Z,34.40
2018-11-03T23:29:21.329Z,30.43
2018-11-03T23:31:50.380Z,37.07
2018-11-03T23:34:19.172Z,35.10
2018-11-03T23:36:47.951Z,32.97
2018-11-03T23:39:16.710Z,28.97
2018-11-03T23:41:45.527Z,29.77
2018-11-03T23:44:14.295Z,31.57
2018-11-03T23:46:43.097Z,30.87
2018-11-03T23:49:11.926Z,29.20
2018-11-03T23:51:40.710Z,29.97
2018-11-03T23:54:09.522Z,34.70
2018-11-03T23:56:38.366Z,36.80
2018-11-03T23:59:07.261Z,34.83
